sensor_id;sensor_type;location;lat;lon;timestamp;P1;durP1;ratioP1;P2;durP2;ratioP2
76202;SDS011;64985;46.364;17.008;2023-05-07T00:00:19;13.75;;;10.90;;
76202;SDS011;64985;46.364;17.008;2023-05-07T00:03:22;13.80;;;11.88;;
76202;SDS011;64985;46.364;17.008;2023-05-07T00:06:24;13.93;;;10.52;;
76202;SDS011;64985;46.364;17.008;2023-05-07T00:09:28;12.57;;;11.10;;
76202;SDS011;64985;46.364;17.008;2023-05-07T00:12:30;15.35;;;12.07;;
76202;SDS011;64985;46.364;17.008;2023-05-07T00:15:35;15.48;;;12.10;;
76202;SDS011;64985;46.364;17.008;2023-05-07T00:18:37;15.98;;;12.57;;
76202;SDS011;64985;46.364;17.008;2023-05-07T00:21:39;15.10;;;11.70;;
76202;SDS011;64985;46.364;17.008;2023-05-07T00:24:41;13.82;;;12.20;;
76202;SDS011;64985;46.364;17.008;2023-05-07T00:27:44;14.90;;;11.57;;
76202;SDS011;64985;46.364;17.008;2023-05-07T00:30:46;13.80;;;12.20;;
76202;SDS011;64985;46.364;17.008;2023-05-07T00:33:48;13.55;;;11.95;;
76202;SDS011;64985;46.364;17.008;2023-05-07T00:36:50;14.55;;;11.90;;
76202;SDS011;64985;46.364;17.008;2023-05-07T00:39:52;12.73;;;11.35;;
76202;SDS011;64985;46.364;17.008;2023-05-07T00:42:55;15.27;;;12.02;;
76202;SDS011;64985;46.364;17.008;2023-05-07T00:45:59;14.18;;;11.73;;
76202;SDS011;64985;46.364;17.008;2023-05-07T00:49:03;15.30;;;12.23;;
76202;SDS011;64985;46.364;17.008;2023-05-07T00:52:06;16.52;;;12.15;;
76202;SDS011;64985;46.364;17.008;2023-05-07T00:55:09;14.80;;;12.57;;
76202;SDS011;64985;46.364;17.008;2023-05-07T00:58:12;15.68;;;12.25;;
76202;SDS011;64985;46.364;17.008;2023-05-07T01:01:14;12.88;;;10.70;;
76202;SDS011;64985;46.364;17.008;2023-05-07T01:04:18;14.07;;;10.80;;
76202;SDS011;64985;46.364;17.008;2023-05-07T01:07:20;14.88;;;12.00;;
76202;SDS011;64985;46.364;17.008;2023-05-07T01:10:23;13.98;;;11.55;;
76202;SDS011;64985;46.364;17.008;2023-05-07T01:13:26;12.90;;;11.35;;
76202;SDS011;64985;46.364;17.008;2023-05-07T01:16:29;16.08;;;12.60;;
76202;SDS011;64985;46.364;17.008;2023-05-07T01:19:32;15.32;;;12.60;;
76202;SDS011;64985;46.364;17.008;2023-05-07T01:22:35;14.35;;;11.85;;
76202;SDS011;64985;46.364;17.008;2023-05-07T01:25:38;13.75;;;12.23;;
76202;SDS011;64985;46.364;17.008;2023-05-07T01:28:40;12.85;;;10.93;;
76202;SDS011;64985;46.364;17.008;2023-05-07T01:31:43;14.30;;;12.02;;
76202;SDS011;64985;46.364;17.008;2023-05-07T01:34:45;15.85;;;14.13;;
76202;SDS011;64985;46.364;17.008;2023-05-07T01:37:51;16.55;;;13.90;;
76202;SDS011;64985;46.364;17.008;2023-05-07T01:40:54;19.25;;;14.82;;
76202;SDS011;64985;46.364;17.008;2023-05-07T01:43:57;18.63;;;14.90;;
76202;SDS011;64985;46.364;17.008;2023-05-07T01:47:01;19.67;;;14.43;;
76202;SDS011;64985;46.364;17.008;2023-05-07T01:50:05;15.52;;;13.38;;
76202;SDS011;64985;46.364;17.008;2023-05-07T01:53:10;18.05;;;15.05;;
76202;SDS011;64985;46.364;17.008;2023-05-07T01:56:12;20.05;;;15.18;;
76202;SDS011;64985;46.364;17.008;2023-05-07T01:59:15;22.15;;;14.63;;
76202;SDS011;64985;46.364;17.008;2023-05-07T02:02:17;18.08;;;14.23;;
76202;SDS011;64985;46.364;17.008;2023-05-07T02:05:19;19.75;;;15.10;;
76202;SDS011;64985;46.364;17.008;2023-05-07T02:08:21;19.08;;;13.93;;
76202;SDS011;64985;46.364;17.008;2023-05-07T02:11:23;20.13;;;14.00;;
76202;SDS011;64985;46.364;17.008;2023-05-07T02:14:26;17.00;;;13.52;;
76202;SDS011;64985;46.364;17.008;2023-05-07T02:17:28;15.80;;;12.70;;
76202;SDS011;64985;46.364;17.008;2023-05-07T02:20:33;15.50;;;13.15;;
76202;SDS011;64985;46.364;17.008;2023-05-07T02:23:35;14.95;;;12.55;;
76202;SDS011;64985;46.364;17.008;2023-05-07T02:26:37;16.98;;;13.05;;
76202;SDS011;64985;46.364;17.008;2023-05-07T02:29:40;14.60;;;12.35;;
76202;SDS011;64985;46.364;17.008;2023-05-07T02:32:42;14.45;;;12.20;;
76202;SDS011;64985;46.364;17.008;2023-05-07T02:35:44;17.90;;;12.90;;
76202;SDS011;64985;46.364;17.008;2023-05-07T02:38:46;15.77;;;12.70;;
76202;SDS011;64985;46.364;17.008;2023-05-07T02:41:48;16.58;;;12.30;;
76202;SDS011;64985;46.364;17.008;2023-05-07T02:44:50;15.43;;;12.80;;
76202;SDS011;64985;46.364;17.008;2023-05-07T02:47:53;15.82;;;12.07;;
76202;SDS011;64985;46.364;17.008;2023-05-07T02:50:55;15.57;;;12.18;;
76202;SDS011;64985;46.364;17.008;2023-05-07T02:53:57;16.13;;;11.98;;
76202;SDS011;64985;46.364;17.008;2023-05-07T02:56:59;17.73;;;11.57;;
76202;SDS011;64985;46.364;17.008;2023-05-07T03:00:15;13.90;;;11.57;;
76202;SDS011;64985;46.364;17.008;2023-05-07T03:03:19;12.38;;;11.07;;
76202;SDS011;64985;46.364;17.008;2023-05-07T03:06:21;12.88;;;10.82;;
76202;SDS011;64985;46.364;17.008;2023-05-07T03:09:23;12.30;;;10.75;;
76202;SDS011;64985;46.364;17.008;2023-05-07T03:12:25;11.93;;;10.40;;
76202;SDS011;64985;46.364;17.008;2023-05-07T03:15:28;12.40;;;10.50;;
76202;SDS011;64985;46.364;17.008;2023-05-07T03:18:31;12.15;;;10.40;;
76202;SDS011;64985;46.364;17.008;2023-05-07T03:21:33;14.80;;;10.43;;
76202;SDS011;64985;46.364;17.008;2023-05-07T03:24:35;14.63;;;11.20;;
76202;SDS011;64985;46.364;17.008;2023-05-07T03:27:37;14.65;;;11.80;;
76202;SDS011;64985;46.364;17.008;2023-05-07T03:30:40;13.07;;;10.50;;
76202;SDS011;64985;46.364;17.008;2023-05-07T03:33:50;12.25;;;10.82;;
76202;SDS011;64985;46.364;17.008;2023-05-07T03:36:53;12.52;;;10.30;;
76202;SDS011;64985;46.364;17.008;2023-05-07T03:39:56;14.38;;;10.13;;
76202;SDS011;64985;46.364;17.008;2023-05-07T03:42:59;11.90;;;10.10;;
76202;SDS011;64985;46.364;17.008;2023-05-07T03:46:01;13.18;;;10.43;;
76202;SDS011;64985;46.364;17.008;2023-05-07T03:49:03;12.88;;;9.98;;
76202;SDS011;64985;46.364;17.008;2023-05-07T03:52:06;13.27;;;10.65;;
76202;SDS011;64985;46.364;17.008;2023-05-07T03:55:08;14.98;;;11.93;;
76202;SDS011;64985;46.364;17.008;2023-05-07T03:58:10;14.35;;;12.60;;
76202;SDS011;64985;46.364;17.008;2023-05-07T04:01:13;16.20;;;11.60;;
76202;SDS011;64985;46.364;17.008;2023-05-07T04:04:15;15.15;;;11.35;;
76202;SDS011;64985;46.364;17.008;2023-05-07T04:07:17;16.95;;;12.32;;
76202;SDS011;64985;46.364;17.008;2023-05-07T04:10:20;18.23;;;13.00;;
76202;SDS011;64985;46.364;17.008;2023-05-07T04:13:22;16.27;;;12.77;;
76202;SDS011;64985;46.364;17.008;2023-05-07T04:16:24;16.10;;;12.98;;
76202;SDS011;64985;46.364;17.008;2023-05-07T04:19:26;18.25;;;13.93;;
76202;SDS011;64985;46.364;17.008;2023-05-07T04:22:28;17.55;;;13.10;;
76202;SDS011;64985;46.364;17.008;2023-05-07T04:25:31;15.93;;;13.73;;
76202;SDS011;64985;46.364;17.008;2023-05-07T04:28:33;16.00;;;13.40;;
76202;SDS011;64985;46.364;17.008;2023-05-07T04:31:36;19.40;;;14.07;;
76202;SDS011;64985;46.364;17.008;2023-05-07T04:34:38;16.58;;;14.20;;
76202;SDS011;64985;46.364;17.008;2023-05-07T04:37:40;18.42;;;15.05;;
76202;SDS011;64985;46.364;17.008;2023-05-07T04:40:42;17.55;;;15.10;;
76202;SDS011;64985;46.364;17.008;2023-05-07T04:43:45;20.35;;;14.82;;
76202;SDS011;64985;46.364;17.008;2023-05-07T04:46:47;17.42;;;14.07;;
76202;SDS011;64985;46.364;17.008;2023-05-07T04:49:50;20.02;;;13.88;;
76202;SDS011;64985;46.364;17.008;2023-05-07T04:52:52;21.08;;;14.30;;
76202;SDS011;64985;46.364;17.008;2023-05-07T04:55:54;16.88;;;13.88;;
76202;SDS011;64985;46.364;17.008;2023-05-07T04:58:58;18.15;;;14.85;;
76202;SDS011;64985;46.364;17.008;2023-05-07T05:02:00;19.33;;;14.25;;
76202;SDS011;64985;46.364;17.008;2023-05-07T05:05:03;24.63;;;16.80;;
76202;SDS011;64985;46.364;17.008;2023-05-07T05:08:05;29.80;;;19.02;;
76202;SDS011;64985;46.364;17.008;2023-05-07T05:11:07;23.55;;;17.23;;
76202;SDS011;64985;46.364;17.008;2023-05-07T05:14:09;21.38;;;15.75;;
76202;SDS011;64985;46.364;17.008;2023-05-07T05:17:12;17.30;;;14.15;;
76202;SDS011;64985;46.364;17.008;2023-05-07T05:20:14;17.83;;;14.25;;
76202;SDS011;64985;46.364;17.008;2023-05-07T05:23:16;17.52;;;13.98;;
76202;SDS011;64985;46.364;17.008;2023-05-07T05:26:18;17.25;;;13.38;;
76202;SDS011;64985;46.364;17.008;2023-05-07T05:29:22;14.68;;;12.13;;
76202;SDS011;64985;46.364;17.008;2023-05-07T05:32:25;13.95;;;12.32;;
76202;SDS011;64985;46.364;17.008;2023-05-07T05:35:27;15.93;;;11.93;;
76202;SDS011;64985;46.364;17.008;2023-05-07T05:38:29;14.43;;;11.70;;
76202;SDS011;64985;46.364;17.008;2023-05-07T05:41:31;14.75;;;11.43;;
76202;SDS011;64985;46.364;17.008;2023-05-07T05:44:33;15.57;;;12.20;;
76202;SDS011;64985;46.364;17.008;2023-05-07T05:47:35;16.85;;;12.40;;
76202;SDS011;64985;46.364;17.008;2023-05-07T05:50:38;12.73;;;11.10;;
76202;SDS011;64985;46.364;17.008;2023-05-07T05:53:40;14.60;;;11.05;;
76202;SDS011;64985;46.364;17.008;2023-05-07T05:56:42;13.90;;;11.45;;
76202;SDS011;64985;46.364;17.008;2023-05-07T05:59:45;11.77;;;10.25;;
76202;SDS011;64985;46.364;17.008;2023-05-07T06:02:48;12.27;;;10.00;;
76202;SDS011;64985;46.364;17.008;2023-05-07T06:05:51;12.15;;;9.82;;
76202;SDS011;64985;46.364;17.008;2023-05-07T06:08:53;12.52;;;10.18;;
76202;SDS011;64985;46.364;17.008;2023-05-07T06:11:56;11.88;;;9.25;;
76202;SDS011;64985;46.364;17.008;2023-05-07T06:15:01;11.95;;;9.88;;
76202;SDS011;64985;46.364;17.008;2023-05-07T06:18:03;16.40;;;8.65;;
76202;SDS011;64985;46.364;17.008;2023-05-07T06:21:05;10.40;;;9.05;;
76202;SDS011;64985;46.364;17.008;2023-05-07T06:24:08;9.23;;;8.07;;
76202;SDS011;64985;46.364;17.008;2023-05-07T06:27:10;9.00;;;8.07;;
76202;SDS011;64985;46.364;17.008;2023-05-07T06:30:12;9.43;;;7.90;;
76202;SDS011;64985;46.364;17.008;2023-05-07T06:33:14;8.77;;;7.78;;
76202;SDS011;64985;46.364;17.008;2023-05-07T06:36:16;10.80;;;7.68;;
76202;SDS011;64985;46.364;17.008;2023-05-07T06:39:18;12.02;;;8.00;;
76202;SDS011;64985;46.364;17.008;2023-05-07T06:42:21;11.02;;;7.85;;
76202;SDS011;64985;46.364;17.008;2023-05-07T06:45:23;9.15;;;8.05;;
76202;SDS011;64985;46.364;17.008;2023-05-07T06:48:26;8.15;;;6.78;;
76202;SDS011;64985;46.364;17.008;2023-05-07T06:51:28;9.00;;;7.07;;
76202;SDS011;64985;46.364;17.008;2023-05-07T06:54:32;7.38;;;6.57;;
76202;SDS011;64985;46.364;17.008;2023-05-07T06:57:34;8.93;;;6.38;;
76202;SDS011;64985;46.364;17.008;2023-05-07T07:00:36;8.10;;;6.28;;
76202;SDS011;64985;46.364;17.008;2023-05-07T07:03:38;7.22;;;6.43;;
76202;SDS011;64985;46.364;17.008;2023-05-07T07:06:40;7.10;;;5.80;;
76202;SDS011;64985;46.364;17.008;2023-05-07T07:09:42;7.05;;;5.43;;
76202;SDS011;64985;46.364;17.008;2023-05-07T07:12:44;6.47;;;5.22;;
76202;SDS011;64985;46.364;17.008;2023-05-07T07:15:46;5.68;;;5.18;;
76202;SDS011;64985;46.364;17.008;2023-05-07T07:18:49;6.38;;;5.57;;
76202;SDS011;64985;46.364;17.008;2023-05-07T07:21:51;6.60;;;5.47;;
76202;SDS011;64985;46.364;17.008;2023-05-07T07:24:54;8.13;;;5.80;;
76202;SDS011;64985;46.364;17.008;2023-05-07T07:27:56;6.75;;;5.80;;
76202;SDS011;64985;46.364;17.008;2023-05-07T07:30:58;7.40;;;4.90;;
76202;SDS011;64985;46.364;17.008;2023-05-07T07:34:01;5.32;;;4.85;;
76202;SDS011;64985;46.364;17.008;2023-05-07T07:37:03;5.38;;;4.88;;
76202;SDS011;64985;46.364;17.008;2023-05-07T07:40:07;5.65;;;5.05;;
76202;SDS011;64985;46.364;17.008;2023-05-07T07:43:15;5.90;;;5.38;;
76202;SDS011;64985;46.364;17.008;2023-05-07T07:46:17;5.45;;;4.95;;
76202;SDS011;64985;46.364;17.008;2023-05-07T07:49:19;4.95;;;4.35;;
76202;SDS011;64985;46.364;17.008;2023-05-07T07:52:21;5.72;;;4.25;;
76202;SDS011;64985;46.364;17.008;2023-05-07T07:55:23;5.45;;;4.10;;
76202;SDS011;64985;46.364;17.008;2023-05-07T07:58:26;5.07;;;4.57;;
76202;SDS011;64985;46.364;17.008;2023-05-07T08:01:31;4.55;;;3.88;;
76202;SDS011;64985;46.364;17.008;2023-05-07T08:04:34;4.18;;;3.78;;
76202;SDS011;64985;46.364;17.008;2023-05-07T08:07:37;6.55;;;4.15;;
76202;SDS011;64985;46.364;17.008;2023-05-07T08:10:39;6.90;;;4.03;;
76202;SDS011;64985;46.364;17.008;2023-05-07T08:13:41;6.28;;;3.80;;
76202;SDS011;64985;46.364;17.008;2023-05-07T08:16:44;3.88;;;3.42;;
76202;SDS011;64985;46.364;17.008;2023-05-07T08:19:46;4.22;;;2.80;;
76202;SDS011;64985;46.364;17.008;2023-05-07T08:22:48;4.28;;;3.80;;
76202;SDS011;64985;46.364;17.008;2023-05-07T08:25:50;3.60;;;3.30;;
76202;SDS011;64985;46.364;17.008;2023-05-07T08:28:53;5.20;;;4.00;;
76202;SDS011;64985;46.364;17.008;2023-05-07T08:31:55;4.70;;;3.60;;
76202;SDS011;64985;46.364;17.008;2023-05-07T08:34:57;4.47;;;2.97;;
76202;SDS011;64985;46.364;17.008;2023-05-07T08:37:59;4.32;;;3.47;;
76202;SDS011;64985;46.364;17.008;2023-05-07T08:41:02;4.15;;;3.65;;
76202;SDS011;64985;46.364;17.008;2023-05-07T08:44:04;5.53;;;3.40;;
76202;SDS011;64985;46.364;17.008;2023-05-07T08:47:12;5.90;;;2.90;;
76202;SDS011;64985;46.364;17.008;2023-05-07T08:50:15;13.15;;;4.68;;
76202;SDS011;64985;46.364;17.008;2023-05-07T08:53:17;4.80;;;2.95;;
76202;SDS011;64985;46.364;17.008;2023-05-07T08:56:19;6.95;;;3.30;;
76202;SDS011;64985;46.364;17.008;2023-05-07T08:59:23;62.88;;;15.63;;
76202;SDS011;64985;46.364;17.008;2023-05-07T09:02:25;5.78;;;3.30;;
76202;SDS011;64985;46.364;17.008;2023-05-07T09:05:28;3.78;;;3.40;;
76202;SDS011;64985;46.364;17.008;2023-05-07T09:08:32;3.45;;;3.15;;
76202;SDS011;64985;46.364;17.008;2023-05-07T09:11:35;3.63;;;3.08;;
76202;SDS011;64985;46.364;17.008;2023-05-07T09:14:38;5.95;;;3.60;;
76202;SDS011;64985;46.364;17.008;2023-05-07T09:17:41;25.77;;;7.75;;
76202;SDS011;64985;46.364;17.008;2023-05-07T09:20:44;62.05;;;14.48;;
76202;SDS011;64985;46.364;17.008;2023-05-07T09:23:52;51.13;;;13.48;;
76202;SDS011;64985;46.364;17.008;2023-05-07T09:26:59;4.03;;;3.20;;
76202;SDS011;64985;46.364;17.008;2023-05-07T09:30:03;3.72;;;3.42;;
76202;SDS011;64985;46.364;17.008;2023-05-07T09:33:07;5.78;;;3.05;;
76202;SDS011;64985;46.364;17.008;2023-05-07T09:36:10;4.38;;;3.15;;
76202;SDS011;64985;46.364;17.008;2023-05-07T09:39:13;3.92;;;3.50;;
76202;SDS011;64985;46.364;17.008;2023-05-07T09:42:15;17.98;;;6.32;;
76202;SDS011;64985;46.364;17.008;2023-05-07T09:45:27;232.95;;;55.88;;
76202;SDS011;64985;46.364;17.008;2023-05-07T09:48:30;14.52;;;5.20;;
76202;SDS011;64985;46.364;17.008;2023-05-07T09:51:41;29.17;;;8.02;;
76202;SDS011;64985;46.364;17.008;2023-05-07T09:54:47;34.97;;;9.40;;
76202;SDS011;64985;46.364;17.008;2023-05-07T09:57:52;104.32;;;21.63;;
76202;SDS011;64985;46.364;17.008;2023-05-07T10:00:55;12.52;;;5.60;;
76202;SDS011;64985;46.364;17.008;2023-05-07T10:03:59;44.38;;;6.47;;
76202;SDS011;64985;46.364;17.008;2023-05-07T10:07:03;6.43;;;3.75;;
76202;SDS011;64985;46.364;17.008;2023-05-07T10:10:07;5.03;;;3.70;;
76202;SDS011;64985;46.364;17.008;2023-05-07T10:13:10;6.10;;;3.95;;
76202;SDS011;64985;46.364;17.008;2023-05-07T10:16:12;4.78;;;3.85;;
76202;SDS011;64985;46.364;17.008;2023-05-07T10:19:16;4.10;;;3.70;;
76202;SDS011;64985;46.364;17.008;2023-05-07T10:22:19;6.60;;;4.10;;
76202;SDS011;64985;46.364;17.008;2023-05-07T10:25:25;4.93;;;3.90;;
76202;SDS011;64985;46.364;17.008;2023-05-07T10:28:34;5.10;;;3.50;;
76202;SDS011;64985;46.364;17.008;2023-05-07T10:31:44;5.20;;;4.05;;
76202;SDS011;64985;46.364;17.008;2023-05-07T10:35:00;4.75;;;3.70;;
76202;SDS011;64985;46.364;17.008;2023-05-07T10:38:05;4.28;;;3.70;;
76202;SDS011;64985;46.364;17.008;2023-05-07T10:41:07;4.55;;;3.92;;
76202;SDS011;64985;46.364;17.008;2023-05-07T10:44:10;4.00;;;3.60;;
76202;SDS011;64985;46.364;17.008;2023-05-07T10:47:13;4.72;;;3.70;;
76202;SDS011;64985;46.364;17.008;2023-05-07T10:59:30;3.80;;;3.50;;
76202;SDS011;64985;46.364;17.008;2023-05-07T11:09:16;5.18;;;3.85;;
76202;SDS011;64985;46.364;17.008;2023-05-07T11:13:01;3.83;;;3.50;;
76202;SDS011;64985;46.364;17.008;2023-05-07T11:15:44;6.72;;;3.80;;
76202;SDS011;64985;46.364;17.008;2023-05-07T11:18:52;5.03;;;3.63;;
76202;SDS011;64985;46.364;17.008;2023-05-07T11:21:55;4.10;;;3.70;;
76202;SDS011;64985;46.364;17.008;2023-05-07T11:24:59;5.05;;;3.70;;
76202;SDS011;64985;46.364;17.008;2023-05-07T11:28:05;4.60;;;4.20;;
76202;SDS011;64985;46.364;17.008;2023-05-07T11:31:11;5.22;;;3.97;;
76202;SDS011;64985;46.364;17.008;2023-05-07T11:34:14;5.72;;;4.10;;
76202;SDS011;64985;46.364;17.008;2023-05-07T11:37:22;5.55;;;3.80;;
76202;SDS011;64985;46.364;17.008;2023-05-07T11:40:26;4.55;;;3.40;;
76202;SDS011;64985;46.364;17.008;2023-05-07T11:43:30;9.73;;;3.72;;
76202;SDS011;64985;46.364;17.008;2023-05-07T11:46:33;3.70;;;3.38;;
76202;SDS011;64985;46.364;17.008;2023-05-07T11:49:36;5.63;;;3.90;;
76202;SDS011;64985;46.364;17.008;2023-05-07T11:52:38;3.88;;;3.30;;
76202;SDS011;64985;46.364;17.008;2023-05-07T11:55:40;4.80;;;3.72;;
76202;SDS011;64985;46.364;17.008;2023-05-07T11:58:44;3.90;;;3.50;;
76202;SDS011;64985;46.364;17.008;2023-05-07T12:01:47;4.00;;;3.53;;
76202;SDS011;64985;46.364;17.008;2023-05-07T12:04:49;5.75;;;3.40;;
76202;SDS011;64985;46.364;17.008;2023-05-07T12:07:55;5.00;;;3.30;;
76202;SDS011;64985;46.364;17.008;2023-05-07T12:10:58;4.82;;;3.45;;
76202;SDS011;64985;46.364;17.008;2023-05-07T12:14:01;3.75;;;3.05;;
76202;SDS011;64985;46.364;17.008;2023-05-07T12:17:06;4.45;;;3.17;;
76202;SDS011;64985;46.364;17.008;2023-05-07T12:20:09;3.83;;;3.13;;
76202;SDS011;64985;46.364;17.008;2023-05-07T12:23:12;4.10;;;3.20;;
76202;SDS011;64985;46.364;17.008;2023-05-07T12:26:14;4.65;;;3.20;;
76202;SDS011;64985;46.364;17.008;2023-05-07T12:29:16;3.72;;;3.40;;
76202;SDS011;64985;46.364;17.008;2023-05-07T12:32:22;18.40;;;3.80;;
76202;SDS011;64985;46.364;17.008;2023-05-07T12:35:31;5.32;;;3.55;;
76202;SDS011;64985;46.364;17.008;2023-05-07T12:38:37;29.42;;;8.45;;
76202;SDS011;64985;46.364;17.008;2023-05-07T12:41:55;4.18;;;2.92;;
76202;SDS011;64985;46.364;17.008;2023-05-07T12:48:38;3.90;;;3.20;;
76202;SDS011;64985;46.364;17.008;2023-05-07T12:51:46;3.53;;;3.17;;
76202;SDS011;64985;46.364;17.008;2023-05-07T12:54:50;17.92;;;3.80;;
76202;SDS011;64985;46.364;17.008;2023-05-07T12:57:52;4.60;;;3.70;;
76202;SDS011;64985;46.364;17.008;2023-05-07T13:00:55;4.05;;;3.45;;
76202;SDS011;64985;46.364;17.008;2023-05-07T13:04:02;5.40;;;3.78;;
76202;SDS011;64985;46.364;17.008;2023-05-07T13:07:05;4.00;;;3.28;;
76202;SDS011;64985;46.364;17.008;2023-05-07T13:10:08;6.40;;;3.47;;
76202;SDS011;64985;46.364;17.008;2023-05-07T13:13:10;4.28;;;3.45;;
76202;SDS011;64985;46.364;17.008;2023-05-07T13:16:13;3.50;;;3.20;;
76202;SDS011;64985;46.364;17.008;2023-05-07T13:19:16;6.20;;;2.95;;
76202;SDS011;64985;46.364;17.008;2023-05-07T13:22:19;4.95;;;3.03;;
76202;SDS011;64985;46.364;17.008;2023-05-07T13:25:21;3.90;;;3.50;;
76202;SDS011;64985;46.364;17.008;2023-05-07T13:28:23;5.97;;;3.30;;
76202;SDS011;64985;46.364;17.008;2023-05-07T13:31:27;3.63;;;3.25;;
76202;SDS011;64985;46.364;17.008;2023-05-07T13:34:29;5.75;;;3.42;;
76202;SDS011;64985;46.364;17.008;2023-05-07T13:37:31;11.73;;;3.63;;
76202;SDS011;64985;46.364;17.008;2023-05-07T13:40:34;4.25;;;2.90;;
76202;SDS011;64985;46.364;17.008;2023-05-07T13:43:36;3.53;;;3.05;;
76202;SDS011;64985;46.364;17.008;2023-05-07T13:46:38;3.50;;;3.20;;
76202;SDS011;64985;46.364;17.008;2023-05-07T13:49:41;3.72;;;3.10;;
76202;SDS011;64985;46.364;17.008;2023-05-07T13:52:43;4.68;;;3.35;;
76202;SDS011;64985;46.364;17.008;2023-05-07T13:55:52;4.28;;;3.13;;
76202;SDS011;64985;46.364;17.008;2023-05-07T13:58:54;3.28;;;2.97;;
76202;SDS011;64985;46.364;17.008;2023-05-07T14:02:01;23.73;;;3.65;;
76202;SDS011;64985;46.364;17.008;2023-05-07T14:05:03;4.72;;;3.30;;
76202;SDS011;64985;46.364;17.008;2023-05-07T14:08:06;5.70;;;3.55;;
76202;SDS011;64985;46.364;17.008;2023-05-07T14:11:09;4.38;;;3.53;;
76202;SDS011;64985;46.364;17.008;2023-05-07T14:14:11;4.20;;;3.03;;
76202;SDS011;64985;46.364;17.008;2023-05-07T14:17:13;7.18;;;3.08;;
76202;SDS011;64985;46.364;17.008;2023-05-07T14:20:16;2.95;;;2.65;;
76202;SDS011;64985;46.364;17.008;2023-05-07T14:23:18;3.70;;;3.00;;
76202;SDS011;64985;46.364;17.008;2023-05-07T14:26:21;4.25;;;2.90;;
76202;SDS011;64985;46.364;17.008;2023-05-07T14:29:24;5.43;;;3.10;;
76202;SDS011;64985;46.364;17.008;2023-05-07T14:32:26;3.95;;;2.72;;
76202;SDS011;64985;46.364;17.008;2023-05-07T14:35:29;3.78;;;2.83;;
76202;SDS011;64985;46.364;17.008;2023-05-07T14:38:31;4.78;;;3.03;;
76202;SDS011;64985;46.364;17.008;2023-05-07T14:41:34;7.00;;;2.83;;
76202;SDS011;64985;46.364;17.008;2023-05-07T14:44:36;3.38;;;2.83;;
76202;SDS011;64985;46.364;17.008;2023-05-07T14:47:38;3.72;;;3.00;;
76202;SDS011;64985;46.364;17.008;2023-05-07T14:50:41;3.35;;;3.05;;
76202;SDS011;64985;46.364;17.008;2023-05-07T14:53:44;3.55;;;3.00;;
76202;SDS011;64985;46.364;17.008;2023-05-07T14:56:46;6.30;;;3.20;;
76202;SDS011;64985;46.364;17.008;2023-05-07T14:59:48;5.38;;;2.80;;
76202;SDS011;64985;46.364;17.008;2023-05-07T15:02:51;8.50;;;3.28;;
76202;SDS011;64985;46.364;17.008;2023-05-07T15:05:53;3.83;;;3.20;;
76202;SDS011;64985;46.364;17.008;2023-05-07T15:08:56;3.25;;;2.47;;
76202;SDS011;64985;46.364;17.008;2023-05-07T15:11:58;4.65;;;2.80;;
76202;SDS011;64985;46.364;17.008;2023-05-07T15:15:00;4.50;;;2.75;;
76202;SDS011;64985;46.364;17.008;2023-05-07T15:18:03;4.15;;;3.05;;
76202;SDS011;64985;46.364;17.008;2023-05-07T15:21:05;9.65;;;3.20;;
76202;SDS011;64985;46.364;17.008;2023-05-07T15:24:08;3.75;;;3.17;;
76202;SDS011;64985;46.364;17.008;2023-05-07T15:27:11;4.82;;;3.20;;
76202;SDS011;64985;46.364;17.008;2023-05-07T15:30:13;3.67;;;3.08;;
76202;SDS011;64985;46.364;17.008;2023-05-07T15:33:15;6.50;;;3.33;;
76202;SDS011;64985;46.364;17.008;2023-05-07T15:36:19;4.82;;;3.17;;
76202;SDS011;64985;46.364;17.008;2023-05-07T15:39:22;6.38;;;3.50;;
76202;SDS011;64985;46.364;17.008;2023-05-07T15:42:25;4.07;;;3.38;;
76202;SDS011;64985;46.364;17.008;2023-05-07T15:45:27;5.47;;;3.10;;
76202;SDS011;64985;46.364;17.008;2023-05-07T15:48:30;4.32;;;3.30;;
76202;SDS011;64985;46.364;17.008;2023-05-07T15:51:33;3.78;;;3.10;;
76202;SDS011;64985;46.364;17.008;2023-05-07T15:54:36;3.80;;;3.00;;
76202;SDS011;64985;46.364;17.008;2023-05-07T15:57:42;5.80;;;3.40;;
76202;SDS011;64985;46.364;17.008;2023-05-07T16:00:45;5.13;;;3.28;;
76202;SDS011;64985;46.364;17.008;2023-05-07T16:03:50;4.97;;;3.20;;
76202;SDS011;64985;46.364;17.008;2023-05-07T16:06:53;3.58;;;3.15;;
76202;SDS011;64985;46.364;17.008;2023-05-07T16:09:55;4.57;;;3.20;;
76202;SDS011;64985;46.364;17.008;2023-05-07T16:12:57;3.25;;;2.95;;
76202;SDS011;64985;46.364;17.008;2023-05-07T16:16:00;5.88;;;3.20;;
76202;SDS011;64985;46.364;17.008;2023-05-07T16:19:02;4.13;;;3.15;;
76202;SDS011;64985;46.364;17.008;2023-05-07T16:22:04;5.65;;;3.35;;
76202;SDS011;64985;46.364;17.008;2023-05-07T16:25:07;6.25;;;3.35;;
76202;SDS011;64985;46.364;17.008;2023-05-07T16:28:10;4.20;;;3.50;;
76202;SDS011;64985;46.364;17.008;2023-05-07T16:31:12;7.18;;;3.63;;
76202;SDS011;64985;46.364;17.008;2023-05-07T16:34:14;4.05;;;3.65;;
76202;SDS011;64985;46.364;17.008;2023-05-07T16:37:17;4.45;;;3.67;;
76202;SDS011;64985;46.364;17.008;2023-05-07T16:40:19;7.72;;;4.00;;
76202;SDS011;64985;46.364;17.008;2023-05-07T16:43:21;6.20;;;3.83;;
76202;SDS011;64985;46.364;17.008;2023-05-07T16:46:23;7.53;;;3.92;;
76202;SDS011;64985;46.364;17.008;2023-05-07T16:49:25;4.43;;;3.95;;
76202;SDS011;64985;46.364;17.008;2023-05-07T16:52:28;5.32;;;4.47;;
76202;SDS011;64985;46.364;17.008;2023-05-07T16:55:30;6.75;;;4.50;;
76202;SDS011;64985;46.364;17.008;2023-05-07T16:58:39;6.45;;;5.25;;
76202;SDS011;64985;46.364;17.008;2023-05-07T17:01:41;7.18;;;4.43;;
76202;SDS011;64985;46.364;17.008;2023-05-07T17:04:44;5.07;;;4.50;;
76202;SDS011;64985;46.364;17.008;2023-05-07T17:07:46;5.90;;;5.03;;
76202;SDS011;64985;46.364;17.008;2023-05-07T17:10:48;6.82;;;5.05;;
76202;SDS011;64985;46.364;17.008;2023-05-07T17:13:50;5.78;;;5.07;;
76202;SDS011;64985;46.364;17.008;2023-05-07T17:16:53;5.82;;;5.22;;
76202;SDS011;64985;46.364;17.008;2023-05-07T17:19:55;7.25;;;5.50;;
76202;SDS011;64985;46.364;17.008;2023-05-07T17:22:57;6.05;;;5.07;;
76202;SDS011;64985;46.364;17.008;2023-05-07T17:25:59;5.50;;;4.95;;
76202;SDS011;64985;46.364;17.008;2023-05-07T17:29:02;6.75;;;5.18;;
76202;SDS011;64985;46.364;17.008;2023-05-07T17:32:04;5.85;;;5.25;;
76202;SDS011;64985;46.364;17.008;2023-05-07T17:35:09;6.15;;;5.00;;
76202;SDS011;64985;46.364;17.008;2023-05-07T17:38:11;6.60;;;5.40;;
76202;SDS011;64985;46.364;17.008;2023-05-07T17:41:13;7.20;;;5.93;;
76202;SDS011;64985;46.364;17.008;2023-05-07T17:44:16;7.05;;;5.93;;
76202;SDS011;64985;46.364;17.008;2023-05-07T17:47:18;7.82;;;6.45;;
76202;SDS011;64985;46.364;17.008;2023-05-07T17:50:20;12.40;;;6.07;;
76202;SDS011;64985;46.364;17.008;2023-05-07T17:53:22;8.25;;;6.18;;
76202;SDS011;64985;46.364;17.008;2023-05-07T17:56:25;9.10;;;6.50;;
76202;SDS011;64985;46.364;17.008;2023-05-07T17:59:27;8.02;;;6.78;;
76202;SDS011;64985;46.364;17.008;2023-05-07T18:02:30;8.75;;;6.50;;
76202;SDS011;64985;46.364;17.008;2023-05-07T18:05:34;11.02;;;7.00;;
76202;SDS011;64985;46.364;17.008;2023-05-07T18:08:37;9.93;;;7.00;;
76202;SDS011;64985;46.364;17.008;2023-05-07T18:11:40;10.23;;;7.07;;